createdAt,value
2017-09-20T00:00:53.740Z,87.90
2017-09-20T00:03:22.156Z,87.50
2017-09-20T00:05:49.781Z,87.40
2017-09-20T00:08:17.407Z,88.10
2017-09-20T00:10:46.096Z,87.20
2017-09-20T00:13:13.763Z,87.10
2017-09-20T00:15:41.385Z,87.00
2017-09-20T00:18:09.045Z,86.80
2017-09-20T00:20:36.668Z,86.70
2017-09-20T00:23:05.068Z,87.60
2017-09-20T00:25:32.722Z,87.40
2017-09-20T00:28:00.336Z,87.50
2017-09-20T00:30:27.964Z,87.90
2017-09-20T00:32:56.385Z,87.60
2017-09-20T00:35:24.004Z,87.50
2017-09-20T00:37:51.622Z,87.70
2017-09-20T00:40:19.277Z,87.60
2017-09-20T00:42:46.906Z,87.90
2017-09-20T00:45:15.284Z,88.40
2017-09-20T00:47:43.728Z,87.70
2017-09-20T00:50:12.673Z,87.70
2017-09-20T00:52:40.312Z,86.80
2017-09-20T00:55:08.191Z,86.40
2017-09-20T00:57:37.106Z,86.10
2017-09-20T01:00:05.957Z,86.40
2017-09-20T01:02:33.804Z,86.30
2017-09-20T01:05:01.424Z,86.10
2017-09-20T01:07:29.881Z,86.10
2017-09-20T01:09:58.806Z,86.40
2017-09-20T01:12:27.897Z,87.00
2017-09-20T01:14:56.667Z,87.70
2017-09-20T01:17:26.066Z,87.50
2017-09-20T01:19:54.157Z,87.40
2017-09-20T01:22:34.755Z,87.80
2017-09-20T01:25:04.556Z,87.40
2017-09-20T01:27:34.203Z,88.30
2017-09-20T01:30:02.744Z,88.20
2017-09-20T01:32:30.368Z,88.50
2017-09-20T01:34:58.787Z,88.60
2017-09-20T01:37:27.228Z,88.50
2017-09-20T01:39:55.355Z,88.50
2017-09-20T01:42:23.899Z,88.00
2017-09-20T01:44:52.352Z,88.30
2017-09-20T01:47:21.072Z,88.10
2017-09-20T01:49:49.733Z,88.40
2017-09-20T01:52:19.023Z,87.90
2017-09-20T01:54:46.634Z,87.60
2017-09-20T01:57:14.911Z,87.40
2017-09-20T01:59:43.877Z,88.30
2017-09-20T02:02:11.923Z,88.30
2017-09-20T02:04:41.439Z,87.60
2017-09-20T02:07:10.556Z,88.10
2017-09-20T02:09:38.667Z,88.10
2017-09-20T02:12:07.044Z,87.60
2017-09-20T02:14:35.460Z,88.30
2017-09-20T02:17:03.116Z,88.20
2017-09-20T02:19:30.737Z,88.00
2017-09-20T02:21:58.359Z,87.70
2017-09-20T02:24:26.003Z,87.50
2017-09-20T02:26:53.621Z,86.40
2017-09-20T02:29:21.235Z,86.40
2017-09-20T02:31:48.876Z,87.00
2017-09-20T02:34:16.492Z,87.50
2017-09-20T02:36:44.109Z,87.60
2017-09-20T02:39:12.523Z,86.70
2017-09-20T02:41:40.133Z,86.70
2017-09-20T02:44:08.516Z,87.50
2017-09-20T02:46:36.173Z,87.50
2017-09-20T02:49:03.796Z,88.30
2017-09-20T02:51:32.181Z,89.00
2017-09-20T02:53:59.841Z,88.90
2017-09-20T02:56:27.491Z,89.90
2017-09-20T02:58:55.103Z,90.10
2017-09-20T03:01:22.764Z,89.80
2017-09-20T03:03:50.390Z,90.10
2017-09-20T03:06:18.768Z,89.30
2017-09-20T03:08:46.418Z,89.20
2017-09-20T03:11:14.036Z,89.90
2017-09-20T03:13:42.424Z,90.00
2017-09-20T03:16:10.067Z,89.90
2017-09-20T03:18:37.683Z,89.10
2017-09-20T03:21:05.305Z,89.50
2017-09-20T03:23:32.951Z,89.30
2017-09-20T03:26:00.575Z,89.40
2017-09-20T03:28:28.195Z,89.40
2017-09-20T03:30:55.849Z,89.60
2017-09-20T03:33:23.474Z,89.40
2017-09-20T03:35:51.855Z,88.90
2017-09-20T03:38:19.516Z,88.90
2017-09-20T03:40:47.134Z,88.80
2017-09-20T03:43:15.517Z,89.40
2017-09-20T03:45:43.180Z,89.30
2017-09-20T03:48:10.796Z,90.30
2017-09-20T03:50:38.420Z,90.50
2017-09-20T03:53:06.076Z,89.90
2017-09-20T03:55:34.459Z,89.80
2017-09-20T03:58:02.092Z,89.60
2017-09-20T04:00:30.521Z,90.30
2017-09-20T04:02:58.163Z,90.20
2017-09-20T04:05:26.587Z,90.50
2017-09-20T04:07:54.243Z,90.40
2017-09-20T04:10:21.868Z,91.00
2017-09-20T04:12:49.496Z,91.40
2017-09-20T04:15:17.293Z,91.80
2017-09-20T04:17:44.921Z,91.90
2017-09-20T04:20:13.310Z,91.20
2017-09-20T04:22:40.968Z,91.10
2017-09-20T04:25:08.619Z,90.80
2017-09-20T04:27:36.257Z,90.60
2017-09-20T04:30:03.915Z,90.40
2017-09-20T04:32:31.535Z,90.80
2017-09-20T04:34:59.270Z,91.40
2017-09-20T04:37:27.702Z,91.70
2017-09-20T04:39:55.318Z,91.70
2017-09-20T04:42:22.948Z,92.00
2017-09-20T04:44:50.604Z,92.40
2017-09-20T04:47:18.262Z,92.40
2017-09-20T04:49:45.904Z,92.20
2017-09-20T04:52:13.556Z,91.60
2017-09-20T04:54:41.189Z,91.70
2017-09-20T04:57:08.807Z,91.50
2017-09-20T04:59:37.233Z,90.30
2017-09-20T05:02:04.856Z,90.30
2017-09-20T05:04:32.493Z,90.80
2017-09-20T05:07:00.147Z,90.80
2017-09-20T05:09:27.772Z,91.50
2017-09-20T05:11:55.430Z,91.50
2017-09-20T05:14:23.129Z,91.30
2017-09-20T05:16:50.764Z,90.70
2017-09-20T05:19:18.387Z,90.80
2017-09-20T05:21:46.051Z,91.30
2017-09-20T05:24:13.671Z,91.20
2017-09-20T05:26:41.305Z,91.20
2017-09-20T05:29:08.963Z,90.90
2017-09-20T05:31:39.943Z,90.80
2017-09-20T05:34:07.645Z,91.30
2017-09-20T05:36:35.304Z,91.80
2017-09-20T05:39:02.933Z,91.20
2017-09-20T05:41:30.701Z,91.30
2017-09-20T05:43:58.355Z,91.00
2017-09-20T05:46:25.976Z,91.00
2017-09-20T05:48:53.614Z,90.70
2017-09-20T05:51:21.289Z,89.90
2017-09-20T05:53:49.179Z,89.50
2017-09-20T05:56:18.046Z,89.60
2017-09-20T05:58:45.907Z,89.60
2017-09-20T06:01:13.605Z,89.70
2017-09-20T06:03:41.246Z,88.80
2017-09-20T06:06:08.906Z,87.70
2017-09-20T06:08:36.536Z,87.10
2017-09-20T06:11:04.160Z,87.30
2017-09-20T06:13:31.816Z,86.00
2017-09-20T06:15:59.447Z,86.20
2017-09-20T06:18:28.385Z,86.00
2017-09-20T06:20:56.252Z,87.00
2017-09-20T06:23:23.876Z,87.00
2017-09-20T06:25:51.504Z,86.40
2017-09-20T06:28:19.168Z,86.90
2017-09-20T06:30:46.800Z,87.10
2017-09-20T06:33:14.428Z,88.90
2017-09-20T06:35:42.095Z,88.70
2017-09-20T06:38:09.733Z,87.30
2017-09-20T06:40:37.370Z,85.80
2017-09-20T06:43:05.045Z,83.10
2017-09-20T06:45:32.679Z,82.70
2017-09-20T06:48:00.316Z,81.30
2017-09-20T06:50:27.979Z,82.40
2017-09-20T06:52:55.607Z,81.30
2017-09-20T06:55:23.244Z,82.20
2017-09-20T06:57:50.903Z,80.20
2017-09-20T07:00:18.531Z,79.80
2017-09-20T07:02:46.185Z,79.90
2017-09-20T07:05:13.857Z,80.00
2017-09-20T07:07:41.484Z,80.00
2017-09-20T07:10:09.132Z,81.10
2017-09-20T07:12:36.803Z,77.90
2017-09-20T07:15:04.452Z,75.80
2017-09-20T07:17:32.089Z,75.10
2017-09-20T07:19:59.747Z,73.50
2017-09-20T07:22:27.380Z,69.50
2017-09-20T07:24:55.020Z,66.90
2017-09-20T07:27:22.789Z,63.70
2017-09-20T07:29:50.424Z,52.90
2017-09-20T07:32:18.061Z,55.90
2017-09-20T07:34:45.723Z,51.10
2017-09-20T07:37:13.359Z,50.10
2017-09-20T07:39:40.992Z,47.30
2017-09-20T07:42:08.668Z,51.50
2017-09-20T07:44:36.284Z,53.20
2017-09-20T07:47:03.925Z,53.30
2017-09-20T07:49:31.596Z,53.10
2017-09-20T07:51:59.232Z,52.30
2017-09-20T07:54:26.863Z,53.30
2017-09-20T07:56:54.532Z,58.00
2017-09-20T07:59:22.160Z,58.40
2017-09-20T08:01:49.792Z,60.40
2017-09-20T08:04:17.476Z,62.50
2017-09-20T08:06:45.114Z,61.30
2017-09-20T08:09:12.737Z,64.60
2017-09-20T08:11:40.400Z,65.50
2017-09-20T08:14:08.028Z,62.40
2017-09-20T08:16:35.669Z,55.80
2017-09-20T08:19:03.336Z,55.00
2017-09-20T08:21:30.971Z,53.50
2017-09-20T08:23:58.617Z,54.20
2017-09-20T08:26:26.288Z,51.30
2017-09-20T08:28:53.924Z,53.30
2017-09-20T08:31:21.569Z,52.90
2017-09-20T08:33:49.248Z,53.50
2017-09-20T08:36:16.887Z,48.90
2017-09-20T08:38:44.536Z,46.30
2017-09-20T08:41:12.204Z,47.70
2017-09-20T08:43:39.835Z,46.10
2017-09-20T08:46:07.481Z,45.70
2017-09-20T08:48:35.176Z,45.00
2017-09-20T08:51:02.859Z,48.10
2017-09-20T08:53:30.510Z,52.60
2017-09-20T08:55:58.195Z,51.00
2017-09-20T08:58:26.599Z,46.70
2017-09-20T09:00:54.237Z,46.70
2017-09-20T09:03:21.910Z,45.30
2017-09-20T09:05:49.561Z,51.10
2017-09-20T09:08:17.200Z,52.60
2017-09-20T09:10:44.871Z,56.10
2017-09-20T09:13:12.504Z,58.00
2017-09-20T09:15:40.136Z,58.90
2017-09-20T09:18:07.801Z,60.50
2017-09-20T09:20:35.438Z,58.30
2017-09-20T09:23:03.074Z,59.00
2017-09-20T09:25:30.745Z,58.40
2017-09-20T09:27:58.384Z,55.30
2017-09-20T09:30:26.015Z,55.50
2017-09-20T09:32:53.685Z,55.90
2017-09-20T09:35:21.316Z,56.70
2017-09-20T09:37:48.944Z,55.10
2017-09-20T09:40:16.612Z,55.10
2017-09-20T09:42:44.243Z,54.10
2017-09-20T09:45:11.879Z,54.40
2017-09-20T09:47:39.540Z,52.40
2017-09-20T09:50:07.168Z,52.20
2017-09-20T09:52:34.811Z,51.60
2017-09-20T09:55:02.479Z,54.30
2017-09-20T09:57:30.119Z,54.60
2017-09-20T09:59:57.754Z,53.60
2017-09-20T10:02:25.446Z,54.00
2017-09-20T10:04:53.085Z,47.30
2017-09-20T10:07:20.725Z,46.70
2017-09-20T10:09:48.395Z,48.00
2017-09-20T10:12:16.041Z,44.80
2017-09-20T10:14:43.689Z,47.10
2017-09-20T10:17:11.356Z,47.90
2017-09-20T10:19:39.755Z,47.20
2017-09-20T10:22:07.392Z,47.20
2017-09-20T10:24:35.059Z,46.90
2017-09-20T10:27:02.660Z,43.00
2017-09-20T10:29:31.064Z,46.80
2017-09-20T10:31:58.745Z,46.60
2017-09-20T10:34:26.372Z,47.40
2017-09-20T10:36:54.008Z,48.30
2017-09-20T10:39:21.670Z,46.50
2017-09-20T10:41:49.299Z,51.70
2017-09-20T10:44:16.936Z,52.90
2017-09-20T10:46:44.599Z,52.20
2017-09-20T10:49:12.245Z,53.00
2017-09-20T10:51:39.888Z,53.50
2017-09-20T10:54:07.560Z,51.50
2017-09-20T10:56:35.191Z,42.60
2017-09-20T10:59:02.825Z,45.20
2017-09-20T11:01:30.502Z,39.30
2017-09-20T11:03:58.128Z,42.80
2017-09-20T11:06:25.762Z,41.50
2017-09-20T11:08:53.424Z,38.10
2017-09-20T11:11:21.081Z,44.30
2017-09-20T11:13:48.718Z,44.80
2017-09-20T11:16:16.380Z,41.30
2017-09-20T11:18:44.004Z,39.30
2017-09-20T11:21:11.642Z,40.90
2017-09-20T11:23:39.313Z,38.10
2017-09-20T11:26:06.943Z,41.60
2017-09-20T11:28:34.577Z,40.50
2017-09-20T11:31:02.233Z,42.90
2017-09-20T11:33:29.860Z,40.00
2017-09-20T11:35:57.512Z,45.30
2017-09-20T11:38:25.160Z,46.00
2017-09-20T11:40:52.792Z,37.00
2017-09-20T11:43:20.414Z,36.90
2017-09-20T11:45:48.839Z,40.00
2017-09-20T11:48:16.460Z,39.50
2017-09-20T11:50:44.085Z,38.90
2017-09-20T11:53:12.518Z,43.70
2017-09-20T11:55:40.156Z,43.50
2017-09-20T11:58:07.789Z,37.00
2017-09-20T12:00:35.451Z,37.30
2017-09-20T12:03:03.085Z,34.60
2017-09-20T12:05:30.723Z,36.70
2017-09-20T12:07:58.379Z,36.70
2017-09-20T12:10:26.006Z,35.00
2017-09-20T12:12:53.623Z,34.90
2017-09-20T12:15:22.044Z,35.60
2017-09-20T12:17:49.668Z,35.50
2017-09-20T12:20:17.359Z,38.00
2017-09-20T12:22:45.019Z,35.80
2017-09-20T12:25:13.407Z,35.30
2017-09-20T12:27:41.027Z,35.30
2017-09-20T12:30:08.677Z,37.20
2017-09-20T12:32:37.068Z,40.10
2017-09-20T12:35:04.699Z,40.20
2017-09-20T12:37:32.346Z,37.40
2017-09-20T12:39:59.971Z,41.50
2017-09-20T12:42:28.372Z,36.20
2017-09-20T12:44:56.045Z,36.20
2017-09-20T12:47:23.671Z,40.60
2017-09-20T12:49:51.304Z,39.10
2017-09-20T12:52:18.959Z,41.00
2017-09-20T12:54:46.595Z,39.10
2017-09-20T12:57:14.229Z,35.20
2017-09-20T12:59:42.653Z,36.80
2017-09-20T13:02:10.309Z,36.90
2017-09-20T13:04:37.928Z,37.40
2017-09-20T13:07:05.590Z,36.80
2017-09-20T13:09:33.216Z,36.30
2017-09-20T13:12:00.819Z,30.20
2017-09-20T13:14:28.451Z,28.30
2017-09-20T13:16:56.057Z,29.60
2017-09-20T13:19:23.657Z,21.60
2017-09-20T13:21:51.291Z,22.30
2017-09-20T13:24:18.884Z,20.00
2017-09-20T13:26:46.481Z,18.20
2017-09-20T13:29:14.116Z,19.70
2017-09-20T13:31:41.713Z,18.50
2017-09-20T13:34:10.076Z,19.60
2017-09-20T13:36:37.704Z,19.60
2017-09-20T13:39:05.307Z,22.70
2017-09-20T13:41:32.907Z,23.70
2017-09-20T13:44:01.315Z,30.20
2017-09-20T13:46:28.955Z,30.20
2017-09-20T13:48:56.585Z,32.50
2017-09-20T13:51:24.250Z,35.30
2017-09-20T13:53:51.852Z,33.80
2017-09-20T13:56:20.212Z,26.40
2017-09-20T13:58:48.623Z,23.10
2017-09-20T14:01:17.935Z,23.10
2017-09-20T14:03:45.540Z,19.90
2017-09-20T14:06:13.175Z,18.70
2017-09-20T14:08:40.774Z,18.10
2017-09-20T14:11:08.388Z,17.40
2017-09-20T14:13:36.023Z,16.70
2017-09-20T14:16:08.240Z,16.50
2017-09-20T14:18:36.052Z,18.30
2017-09-20T14:21:04.008Z,19.30
2017-09-20T14:23:31.613Z,20.40
2017-09-20T14:25:59.243Z,20.70
2017-09-20T14:28:28.355Z,22.20
2017-09-20T14:30:56.371Z,23.10
2017-09-20T14:33:24.796Z,26.60
2017-09-20T14:35:52.446Z,26.60
2017-09-20T14:38:20.846Z,24.90
2017-09-20T14:40:49.396Z,27.60
2017-09-20T14:43:17.027Z,27.60
2017-09-20T14:45:44.664Z,30.70
2017-09-20T14:48:12.328Z,32.70
2017-09-20T14:50:39.961Z,34.80
2017-09-20T14:53:07.587Z,35.00
2017-09-20T14:55:35.236Z,35.10
2017-09-20T14:58:03.623Z,34.80
2017-09-20T15:00:32.028Z,34.20
2017-09-20T15:02:59.687Z,29.00
2017-09-20T15:05:27.319Z,32.70
2017-09-20T15:07:54.976Z,31.30
2017-09-20T15:10:25.310Z,35.40
2017-09-20T15:12:52.937Z,33.00
2017-09-20T15:15:20.580Z,38.60
2017-09-20T15:17:48.243Z,37.80
2017-09-20T15:20:15.864Z,39.60
2017-09-20T15:22:43.487Z,38.80
2017-09-20T15:25:11.912Z,41.10
2017-09-20T15:27:39.540Z,40.90
2017-09-20T15:30:07.190Z,41.60
2017-09-20T15:32:34.853Z,43.70
2017-09-20T15:35:02.476Z,42.50
2017-09-20T15:37:30.108Z,44.00
2017-09-20T15:39:57.772Z,41.80
2017-09-20T15:42:25.387Z,44.20
2017-09-20T15:44:53.772Z,42.40
2017-09-20T15:47:21.427Z,42.40
2017-09-20T15:49:49.046Z,43.50
2017-09-20T15:52:17.443Z,44.40
2017-09-20T15:54:45.101Z,44.30
2017-09-20T15:57:12.727Z,47.00
2017-09-20T15:59:40.364Z,47.40
2017-09-20T16:02:08.014Z,45.60
2017-09-20T16:04:35.648Z,46.90
2017-09-20T16:07:04.051Z,47.80
2017-09-20T16:09:31.714Z,47.80
2017-09-20T16:11:59.338Z,46.90
2017-09-20T16:14:26.978Z,50.40
2017-09-20T16:16:54.633Z,46.70
2017-09-20T16:19:22.289Z,45.70
2017-09-20T16:21:49.946Z,49.10
2017-09-20T16:24:17.623Z,51.10
2017-09-20T16:26:46.012Z,51.90
2017-09-20T16:29:13.673Z,51.90
2017-09-20T16:31:41.343Z,50.60
2017-09-20T16:34:08.980Z,50.80
2017-09-20T16:36:36.644Z,47.70
2017-09-20T16:39:04.311Z,49.00
2017-09-20T16:41:31.948Z,50.20
2017-09-20T16:43:59.588Z,50.90
2017-09-20T16:46:27.274Z,51.00
2017-09-20T16:48:55.693Z,50.50
2017-09-20T16:51:23.352Z,50.50
2017-09-20T16:53:51.005Z,52.20
2017-09-20T16:56:18.634Z,52.90
2017-09-20T16:58:46.260Z,52.30
2017-09-20T17:01:13.912Z,53.10
2017-09-20T17:03:41.547Z,56.30
2017-09-20T17:06:09.166Z,55.40
2017-09-20T17:08:37.591Z,59.50
2017-09-20T17:11:05.286Z,59.50
2017-09-20T17:13:32.913Z,61.20
2017-09-20T17:16:01.341Z,61.60
2017-09-20T17:18:28.960Z,61.50
2017-09-20T17:20:56.587Z,62.90
2017-09-20T17:23:24.259Z,61.80
2017-09-20T17:25:51.888Z,62.30
2017-09-20T17:28:19.516Z,63.30
2017-09-20T17:30:47.945Z,64.70
2017-09-20T17:33:15.569Z,64.80
2017-09-20T17:35:43.187Z,65.70
2017-09-20T17:38:12.627Z,65.40
2017-09-20T17:40:40.279Z,64.30
2017-09-20T17:43:07.940Z,65.30
2017-09-20T17:45:36.563Z,66.30
2017-09-20T17:48:04.179Z,66.20
2017-09-20T17:50:31.830Z,66.90
2017-09-20T17:52:59.500Z,66.70
2017-09-20T17:55:27.134Z,67.60
2017-09-20T17:57:54.767Z,69.60
2017-09-20T18:00:23.621Z,69.70
2017-09-20T18:02:52.033Z,71.80
2017-09-20T18:05:19.672Z,71.80
2017-09-20T18:07:47.335Z,72.80
2017-09-20T18:10:15.088Z,71.90
2017-09-20T18:12:42.744Z,73.00
2017-09-20T18:15:10.403Z,73.20
2017-09-20T18:17:38.129Z,73.40
2017-09-20T18:20:05.844Z,74.20
2017-09-20T18:22:33.511Z,74.20
2017-09-20T18:25:01.132Z,74.10
2017-09-20T18:27:28.757Z,75.20
2017-09-20T18:29:56.429Z,76.40
2017-09-20T18:32:24.096Z,75.40
2017-09-20T18:34:51.723Z,75.80
2017-09-20T18:37:19.377Z,77.00
2017-09-20T18:39:47.013Z,77.10
2017-09-20T18:42:14.636Z,76.90
2017-09-20T18:44:43.067Z,78.60
2017-09-20T18:47:10.693Z,78.60
2017-09-20T18:49:38.351Z,79.40
2017-09-20T18:52:06.017Z,79.30
2017-09-20T18:54:33.642Z,79.90
2017-09-20T18:57:01.268Z,80.30
2017-09-20T18:59:28.932Z,80.40
2017-09-20T19:01:56.564Z,80.00
2017-09-20T19:04:24.187Z,81.60
2017-09-20T19:06:52.617Z,81.90
2017-09-20T19:09:20.246Z,81.90
2017-09-20T19:11:47.921Z,82.60
2017-09-20T19:14:15.670Z,83.40
2017-09-20T19:16:43.292Z,83.90
2017-09-20T19:19:11.037Z,84.60
2017-09-20T19:21:38.687Z,84.90
2017-09-20T19:24:06.357Z,84.30
2017-09-20T19:26:33.976Z,84.20
2017-09-20T19:29:01.716Z,84.80
2017-09-20T19:31:30.243Z,85.40
2017-09-20T19:33:58.648Z,86.30
2017-09-20T19:36:26.311Z,86.30
2017-09-20T19:38:53.944Z,86.40
2017-09-20T19:41:21.560Z,86.60
2017-09-20T19:43:57.171Z,87.40
2017-09-20T19:46:34.273Z,86.80
2017-09-20T19:49:07.720Z,86.70
2017-09-20T19:51:41.611Z,86.70
2017-09-20T19:54:15.626Z,86.90
2017-09-20T19:56:43.696Z,87.10
2017-09-20T19:59:11.318Z,87.30
2017-09-20T20:01:39.739Z,85.50
2017-09-20T20:04:07.424Z,85.50
2017-09-20T20:06:35.816Z,85.40
2017-09-20T20:09:03.489Z,85.30
2017-09-20T20:11:31.118Z,86.20
2017-09-20T20:13:58.736Z,86.10
2017-09-20T20:16:27.248Z,86.20
2017-09-20T20:18:54.863Z,86.20
2017-09-20T20:21:22.487Z,85.80
2017-09-20T20:23:50.901Z,86.40
2017-09-20T20:26:18.519Z,86.40
2017-09-20T20:28:46.140Z,86.60
2017-09-20T20:31:14.569Z,86.80
2017-09-20T20:33:42.187Z,86.70
2017-09-20T20:36:09.845Z,86.60
2017-09-20T20:38:37.500Z,87.30
2017-09-20T20:41:05.119Z,87.20
2017-09-20T20:43:32.735Z,86.90
2017-09-20T20:46:01.160Z,86.90
2017-09-20T20:48:28.785Z,86.80
2017-09-20T20:50:56.412Z,87.40
2017-09-20T20:53:24.063Z,87.30
2017-09-20T20:55:51.687Z,87.60
2017-09-20T20:58:20.067Z,87.80
2017-09-20T21:00:47.725Z,87.80
2017-09-20T21:03:15.348Z,88.30
2017-09-20T21:05:43.747Z,88.70
2017-09-20T21:08:11.404Z,88.70
2017-09-20T21:10:39.068Z,88.60
2017-09-20T21:13:06.717Z,88.50
2017-09-20T21:15:34.379Z,87.90
2017-09-20T21:18:02.035Z,88.30
2017-09-20T21:20:29.660Z,89.00
2017-09-20T21:22:57.310Z,89.00
2017-09-20T21:25:24.939Z,88.90
2017-09-20T21:27:52.557Z,88.90
2017-09-20T21:30:20.210Z,88.70
2017-09-20T21:32:47.823Z,88.50
2017-09-20T21:35:16.205Z,89.00
2017-09-20T21:37:43.851Z,89.00
2017-09-20T21:40:11.560Z,89.40
2017-09-20T21:42:39.177Z,90.00
2017-09-20T21:45:06.837Z,89.70
2017-09-20T21:47:34.461Z,89.90
2017-09-20T21:50:02.093Z,89.40
2017-09-20T21:52:29.751Z,89.30
2017-09-20T21:54:57.367Z,88.40
2017-09-20T21:57:25.773Z,88.20
2017-09-20T21:59:53.427Z,88.20
2017-09-20T22:02:21.057Z,88.40
2017-09-20T22:04:48.679Z,88.40
2017-09-20T22:07:16.333Z,88.00
2017-09-20T22:09:43.963Z,87.40
2017-09-20T22:12:12.342Z,87.10
2017-09-20T22:14:40.000Z,87.10
2017-09-20T22:17:20.567Z,87.40
2017-09-20T22:20:00.035Z,88.10
2017-09-20T22:22:40.272Z,89.60
2017-09-20T22:25:20.593Z,89.90
2017-09-20T22:27:48.212Z,89.80
2017-09-20T22:30:15.831Z,89.70
2017-09-20T22:32:43.476Z,89.70
2017-09-20T22:35:11.102Z,90.10
2017-09-20T22:37:39.496Z,89.90
2017-09-20T22:40:07.154Z,89.80
2017-09-20T22:42:34.763Z,89.30
2017-09-20T22:45:03.156Z,89.30
2017-09-20T22:47:30.808Z,89.30
2017-09-20T22:49:58.433Z,89.40
2017-09-20T22:52:26.052Z,89.20
2017-09-20T22:54:53.707Z,88.80
2017-09-20T22:57:22.112Z,88.50
2017-09-20T22:59:49.743Z,88.50
2017-09-20T23:02:17.412Z,88.40
2017-09-20T23:04:45.029Z,88.50
2017-09-20T23:07:12.659Z,88.00
2017-09-20T23:09:41.084Z,89.10
2017-09-20T23:12:08.708Z,89.10
2017-09-20T23:14:36.341Z,88.60
2017-09-20T23:17:03.999Z,87.90
2017-09-20T23:19:31.615Z,87.80
2017-09-20T23:22:00.010Z,88.60
2017-09-20T23:24:27.663Z,88.60
2017-09-20T23:26:55.286Z,88.00
2017-09-20T23:29:22.911Z,88.30
2017-09-20T23:31:51.325Z,88.50
2017-09-20T23:34:18.940Z,88.30
2017-09-20T23:36:46.560Z,88.20
2017-09-20T23:39:14.976Z,88.70
2017-09-20T23:41:42.591Z,88.50
2017-09-20T23:44:10.212Z,88.70
2017-09-20T23:46:37.862Z,89.80
2017-09-20T23:49:06.249Z,89.80
2017-09-20T23:51:33.871Z,89.60
2017-09-20T23:54:01.519Z,89.70
2017-09-20T23:56:29.136Z,89.90
2017-09-20T23:58:56.840Z,90.10
